Time;durP1;ratioP1;P1;durP2;ratioP2;P2;SDS_P1;SDS_P2;PMS_P1;PMS_P2;Temp;Humidity;BMP_temperature;BMP_pressure;BME280_temperature;BME280_humidity;BME280_pressure;Samples;Min_cycle;Max_cycle;Signal;HPM_P1;HPM_P2
2022/04/08 00:01:18;;;;;;;10.13;1.80;;;5.20;99.90;;;;;;4880004;29;20593;-87
2022/04/08 00:03:45;;;;;;;10.27;1.83;;;5.20;99.90;;;;;;4897952;29;20055;-87
2022/04/08 00:06:10;;;;;;;10.80;1.80;;;5.10;99.90;;;;;;4880623;29;20145;-87
2022/04/08 00:08:36;;;;;;;10.63;1.90;;;5.10;99.90;;;;;;4881349;29;20076;-87
2022/04/08 00:11:02;;;;;;;10.33;2.07;;;5.10;99.90;;;;;;4881383;29;20060;-87
2022/04/08 00:13:28;;;;;;;10.73;2.30;;;5.30;99.90;;;;;;4896984;29;20041;-87
2022/04/08 00:15:54;;;;;;;10.43;2.00;;;5.20;99.90;;;;;;4880779;29;20441;-88
2022/04/08 00:18:19;;;;;;;13.20;2.43;;;5.30;99.90;;;;;;4898164;29;20397;-87
2022/04/08 00:20:45;;;;;;;11.93;2.30;;;5.10;99.90;;;;;;4879888;29;20488;-87
2022/04/08 00:23:11;;;;;;;10.97;2.00;;;5.10;99.90;;;;;;4897375;29;20051;-87
2022/04/08 00:25:36;;;;;;;13.20;1.80;;;5.20;99.90;;;;;;4881071;29;20048;-88
2022/04/08 00:28:02;;;;;;;10.57;2.23;;;5.00;99.90;;;;;;4879878;29;20067;-88
2022/04/08 00:30:28;;;;;;;9.60;2.00;;;5.00;99.90;;;;;;4897354;29;20056;-87
2022/04/08 00:32:56;;;;;;;7.00;1.77;;;5.00;99.90;;;;;;4896874;29;20061;-87
2022/04/08 00:35:22;;;;;;;11.13;1.90;;;4.90;99.90;;;;;;4896957;29;20088;-87
2022/04/08 00:37:49;;;;;;;9.53;2.57;;;4.90;99.90;;;;;;4880987;29;20500;-87
2022/04/08 00:40:15;;;;;;;7.00;2.37;;;4.90;99.90;;;;;;4897608;29;20051;-87
2022/04/08 00:42:42;;;;;;;10.80;1.80;;;4.90;99.90;;;;;;4896522;29;20049;-87
2022/04/08 00:45:07;;;;;;;8.87;1.57;;;5.00;99.90;;;;;;4897512;29;20088;-87
2022/04/08 00:47:35;;;;;;;9.23;1.90;;;4.90;99.90;;;;;;4880852;29;20564;-87
2022/04/08 00:50:03;;;;;;;10.43;2.67;;;4.90;99.90;;;;;;4896597;29;20420;-87
2022/04/08 00:52:29;;;;;;;7.87;1.57;;;4.90;99.90;;;;;;4880327;29;20084;-87
2022/04/08 00:54:56;;;;;;;10.57;2.00;;;4.90;99.90;;;;;;4897252;29;20071;-86
2022/04/08 00:57:21;;;;;;;8.07;1.47;;;4.90;99.90;;;;;;4897121;29;20060;-88
2022/04/08 00:59:48;;;;;;;10.17;2.20;;;4.80;99.90;;;;;;4897625;29;20132;-86
2022/04/08 01:02:15;;;;;;;8.27;1.70;;;4.80;99.90;;;;;;4883469;29;20045;-88
2022/04/08 01:04:40;;;;;;;9.47;1.93;;;4.80;99.90;;;;;;4883364;29;20055;-87
2022/04/08 01:07:06;;;;;;;9.10;1.97;;;4.70;99.90;;;;;;4900620;29;20049;-87
2022/04/08 01:09:32;;;;;;;8.03;1.80;;;4.70;99.90;;;;;;4900100;29;20055;-87
2022/04/08 01:11:57;;;;;;;7.63;1.80;;;4.70;99.90;;;;;;4883282;29;20052;-86
2022/04/08 01:14:23;;;;;;;7.80;1.57;;;4.70;99.90;;;;;;4884252;29;20052;-87
2022/04/08 01:16:49;;;;;;;7.17;1.43;;;4.60;99.90;;;;;;4882923;29;20061;-87
2022/04/08 01:19:14;;;;;;;4.87;1.50;;;4.50;99.90;;;;;;4884468;29;20040;-87
2022/04/08 01:21:40;;;;;;;4.17;1.40;;;4.30;99.90;;;;;;4900561;29;20076;-87
2022/04/08 01:24:12;;;;;;;8.40;1.90;;;4.30;99.90;;;;;;4899977;29;20052;-87
2022/04/08 01:26:39;;;;;;;4.87;1.40;;;4.30;99.90;;;;;;4884297;29;20056;-86
2022/04/08 01:29:05;;;;;;;4.40;1.40;;;4.20;99.90;;;;;;4899863;29;20489;-86
2022/04/08 01:31:30;;;;;;;4.33;1.07;;;4.00;99.90;;;;;;4883271;29;20169;-87
2022/04/08 01:33:56;;;;;;;3.20;1.10;;;3.90;99.90;;;;;;4883432;29;20045;-87
2022/04/08 01:36:21;;;;;;;7.67;1.50;;;3.90;99.90;;;;;;4900385;29;20043;-86
2022/04/08 01:38:47;;;;;;;7.40;1.30;;;3.90;99.90;;;;;;4882436;29;20136;-86
2022/04/08 01:41:16;;;;;;;7.47;1.50;;;4.00;99.90;;;;;;4900425;29;20385;-86
2022/04/08 01:43:45;;;;;;;6.47;1.40;;;3.80;99.90;;;;;;4900602;29;20048;-87
2022/04/08 01:46:11;;;;;;;11.47;1.73;;;3.80;99.90;;;;;;4899305;29;20397;-86
2022/04/08 01:48:36;;;;;;;5.47;1.33;;;3.80;99.90;;;;;;4883214;29;20412;-86
2022/04/08 01:51:02;;;;;;;5.20;1.40;;;3.80;99.90;;;;;;4899666;29;20048;-86
2022/04/08 01:53:27;;;;;;;8.20;1.80;;;3.60;99.90;;;;;;4899337;29;20052;-86
2022/04/08 01:55:53;;;;;;;6.40;1.40;;;3.60;99.90;;;;;;4899979;29;20044;-85
2022/04/08 01:58:19;;;;;;;7.83;1.43;;;3.90;99.90;;;;;;4883022;29;20052;-86
2022/04/08 02:00:44;;;;;;;5.30;1.37;;;3.40;99.90;;;;;;4898674;29;20123;-85
2022/04/08 02:03:10;;;;;;;8.50;1.60;;;3.50;99.90;;;;;;4899367;29;20053;-86
2022/04/08 02:05:35;;;;;;;6.20;1.60;;;3.30;99.90;;;;;;4899723;29;20165;-86
2022/04/08 02:08:01;;;;;;;8.20;1.50;;;3.40;99.90;;;;;;4898942;29;20045;-87
2022/04/08 02:10:27;;;;;;;9.27;1.50;;;3.40;99.90;;;;;;4882925;29;20048;-85
2022/04/08 02:12:53;;;;;;;7.73;1.50;;;3.20;99.90;;;;;;4898109;29;20523;-86
2022/04/08 02:15:30;;;;;;;8.87;1.60;;;3.30;99.90;;;;;;4899766;29;20057;-86
2022/04/08 02:17:56;;;;;;;9.33;1.70;;;3.70;99.90;;;;;;4899202;29;20416;-86
2022/04/08 02:20:21;;;;;;;5.47;1.50;;;3.40;99.90;;;;;;4898908;29;20056;-86
2022/04/08 02:22:47;;;;;;;7.17;1.70;;;3.30;99.90;;;;;;4882101;29;20060;-86
2022/04/08 02:25:13;;;;;;;10.97;1.53;;;3.20;99.90;;;;;;4899086;29;20043;-85
2022/04/08 02:27:38;;;;;;;7.50;1.60;;;3.40;99.90;;;;;;4881901;29;20044;-86
2022/04/08 02:30:05;;;;;;;8.47;1.63;;;3.10;99.90;;;;;;4882060;29;20061;-86
2022/04/08 02:32:30;;;;;;;10.83;1.90;;;3.00;99.90;;;;;;4899254;29;20049;-85
2022/04/08 02:34:56;;;;;;;10.63;1.90;;;2.90;99.90;;;;;;4881404;29;20048;-86
2022/04/08 02:37:21;;;;;;;9.03;2.30;;;2.80;99.90;;;;;;4899271;29;20052;-86
2022/04/08 02:39:47;;;;;;;8.80;2.20;;;2.80;99.90;;;;;;4898972;29;20059;-86
2022/04/08 02:42:13;;;;;;;9.47;2.50;;;2.80;99.90;;;;;;4881389;29;20045;-86
2022/04/08 02:44:38;;;;;;;9.77;2.10;;;2.70;99.90;;;;;;4899007;29;20049;-86
2022/04/08 02:47:04;;;;;;;10.50;2.00;;;2.70;99.90;;;;;;4882293;29;20044;-86
2022/04/08 02:49:30;;;;;;;8.90;1.80;;;2.70;99.90;;;;;;4881541;29;20516;-86
2022/04/08 02:51:55;;;;;;;7.80;1.90;;;2.60;99.90;;;;;;4898778;29;20194;-86
2022/04/08 02:54:21;;;;;;;9.03;1.70;;;2.60;99.90;;;;;;4899092;29;20044;-86
2022/04/08 02:56:46;;;;;;;10.40;1.80;;;3.50;99.90;;;;;;4898051;29;20045;-85
2022/04/08 02:59:12;;;;;;;10.97;1.60;;;2.50;99.90;;;;;;4881960;29;20053;-86
2022/04/08 03:01:38;;;;;;;11.80;1.73;;;2.40;99.90;;;;;;4882283;29;20120;-86
2022/04/08 03:04:06;;;;;;;10.23;1.60;;;3.70;99.90;;;;;;4898219;29;20052;-86
2022/04/08 03:06:32;;;;;;;9.07;2.27;;;2.40;99.90;;;;;;4898456;29;20453;-86
2022/04/08 03:08:58;;;;;;;10.30;1.93;;;2.50;99.90;;;;;;4898805;29;20544;-86
2022/04/08 03:11:23;;;;;;;7.97;2.17;;;3.40;99.90;;;;;;4881645;29;20128;-85
2022/04/08 03:13:49;;;;;;;9.67;2.47;;;2.60;99.90;;;;;;4898225;29;20044;-86
2022/04/08 03:16:14;;;;;;;9.77;1.90;;;2.70;99.90;;;;;;4897952;29;20091;-85
2022/04/08 03:18:40;;;;;;;6.80;1.67;;;2.80;99.90;;;;;;4881870;29;20083;-86
2022/04/08 03:21:06;;;;;;;10.33;1.90;;;2.90;99.90;;;;;;4897968;29;20052;-86
2022/04/08 03:23:31;;;;;;;9.80;1.93;;;2.80;99.90;;;;;;4896952;29;20056;-86
2022/04/08 03:25:57;;;;;;;8.20;1.83;;;2.80;99.90;;;;;;4881355;29;20076;-86
2022/04/08 03:28:23;;;;;;;10.10;1.73;;;2.80;99.90;;;;;;4898059;29;20052;-85
2022/04/08 03:30:48;;;;;;;8.50;2.10;;;2.80;99.90;;;;;;4897088;29;20173;-86
2022/04/08 03:33:14;;;;;;;9.67;1.90;;;2.80;99.90;;;;;;4898501;29;20480;-86
2022/04/08 03:35:40;;;;;;;7.03;2.17;;;2.80;99.90;;;;;;4897979;29;20135;-86
2022/04/08 03:38:05;;;;;;;5.67;1.73;;;2.80;99.90;;;;;;4897458;29;20052;-86
2022/04/08 03:40:31;;;;;;;7.23;2.00;;;3.00;99.90;;;;;;4881504;29;20051;-86
2022/04/08 03:42:57;;;;;;;8.30;1.97;;;2.80;99.90;;;;;;4881135;29;20052;-86
2022/04/08 03:45:24;;;;;;;7.40;1.50;;;2.80;99.90;;;;;;4897692;29;20422;-85
2022/04/08 03:47:50;;;;;;;8.90;1.80;;;2.80;99.90;;;;;;4881276;29;20111;-85
2022/04/08 03:50:16;;;;;;;10.37;2.27;;;2.90;99.90;;;;;;4897627;29;20544;-86
2022/04/08 03:52:42;;;;;;;12.77;2.10;;;2.90;99.90;;;;;;4881098;29;20053;-85
2022/04/08 03:55:08;;;;;;;8.87;1.87;;;2.90;99.90;;;;;;4883006;29;20045;-86
2022/04/08 03:57:34;;;;;;;11.27;1.90;;;2.90;99.90;;;;;;4885147;29;20084;-86
2022/04/08 04:00:00;;;;;;;12.50;2.67;;;3.00;99.90;;;;;;4880371;29;20087;-86
2022/04/08 04:02:25;;;;;;;9.20;2.20;;;3.00;99.90;;;;;;4897555;29;20044;-86
2022/04/08 04:04:51;;;;;;;11.90;2.00;;;2.90;99.90;;;;;;4896787;29;20048;-86
2022/04/08 04:07:17;;;;;;;9.77;2.07;;;2.90;99.90;;;;;;4879880;29;20041;-86
2022/04/08 04:09:44;;;;;;;9.63;2.13;;;3.20;99.90;;;;;;4897519;29;20056;-86
2022/04/08 04:12:10;;;;;;;9.33;2.23;;;2.80;99.90;;;;;;4897557;29;20041;-86
2022/04/08 04:14:36;;;;;;;9.47;2.00;;;2.80;99.90;;;;;;4897231;29;20041;-86
2022/04/08 04:17:02;;;;;;;11.47;2.10;;;2.80;99.90;;;;;;4880651;29;20559;-86
2022/04/08 04:19:27;;;;;;;9.67;1.97;;;2.70;99.90;;;;;;4879818;29;20045;-85
2022/04/08 04:21:53;;;;;;;10.43;2.63;;;2.70;99.90;;;;;;4880584;29;20060;-86
2022/04/08 04:24:18;;;;;;;12.50;3.17;;;2.80;99.90;;;;;;4881039;29;20092;-86
2022/04/08 04:26:44;;;;;;;9.97;2.03;;;2.80;99.90;;;;;;4896790;29;20047;-86
2022/04/08 04:29:11;;;;;;;11.40;2.27;;;3.70;99.90;;;;;;4897301;29;20465;-86
2022/04/08 04:31:36;;;;;;;9.20;2.13;;;2.70;99.90;;;;;;4897887;29;20048;-86
2022/04/08 04:34:02;;;;;;;11.93;2.93;;;3.00;99.90;;;;;;4879392;29;20081;-86
2022/04/08 04:36:27;;;;;;;8.67;2.10;;;2.70;99.90;;;;;;4899241;29;20044;-86
2022/04/08 04:38:53;;;;;;;10.80;2.10;;;2.70;99.90;;;;;;4884666;29;20048;-86
2022/04/08 04:41:19;;;;;;;9.33;2.40;;;2.70;99.90;;;;;;4884017;29;20064;-86
2022/04/08 04:43:44;;;;;;;9.87;1.87;;;2.70;99.90;;;;;;4900777;29;20041;-86
2022/04/08 04:46:10;;;;;;;8.67;2.03;;;2.90;99.90;;;;;;4901108;29;20079;-86
2022/04/08 04:48:35;;;;;;;10.47;1.73;;;2.90;99.90;;;;;;4883447;29;20131;-86
2022/04/08 04:51:01;;;;;;;9.63;2.13;;;2.80;99.90;;;;;;4884138;29;20052;-86
2022/04/08 04:53:26;;;;;;;11.03;1.93;;;2.90;99.90;;;;;;4901177;29;20044;-86
2022/04/08 04:55:52;;;;;;;11.50;2.63;;;2.80;99.90;;;;;;4899980;29;20100;-86
2022/04/08 04:58:18;;;;;;;8.60;2.13;;;2.70;99.90;;;;;;4884132;29;20151;-86
2022/04/08 05:00:43;;;;;;;12.30;2.30;;;2.70;99.90;;;;;;4900642;29;20037;-86
2022/04/08 05:03:11;;;;;;;8.67;2.00;;;2.60;99.90;;;;;;4883102;29;20068;-86
2022/04/08 05:05:36;;;;;;;9.93;2.50;;;2.60;99.90;;;;;;4900759;29;20048;-86
2022/04/08 05:08:03;;;;;;;11.30;2.00;;;2.50;99.90;;;;;;4900378;29;20120;-85
2022/04/08 05:10:30;;;;;;;8.10;2.30;;;2.60;99.90;;;;;;4883371;29;20053;-86
2022/04/08 05:12:56;;;;;;;8.90;2.10;;;2.50;99.90;;;;;;4900472;29;20044;-86
2022/04/08 05:15:21;;;;;;;8.07;1.97;;;2.50;99.90;;;;;;4884079;29;20048;-86
2022/04/08 05:17:47;;;;;;;11.93;2.47;;;2.50;99.90;;;;;;4882853;29;20400;-85
2022/04/08 05:20:12;;;;;;;11.73;2.80;;;2.60;99.90;;;;;;4884108;29;20076;-86
2022/04/08 05:22:41;;;;;;;11.60;3.70;;;2.60;99.90;;;;;;4900054;29;20119;-85
2022/04/08 05:25:07;;;;;;;10.63;2.90;;;2.60;99.90;;;;;;4900103;29;20045;-86
2022/04/08 05:27:43;;;;;;;12.37;2.83;;;2.50;99.90;;;;;;4900286;29;20103;-86
2022/04/08 05:30:12;;;;;;;12.13;2.30;;;2.70;99.90;;;;;;4899202;29;20061;-86
2022/04/08 05:32:39;;;;;;;13.27;2.63;;;2.60;99.90;;;;;;4900739;29;20064;-86
2022/04/08 05:35:05;;;;;;;12.23;2.43;;;2.60;99.90;;;;;;4883225;29;20048;-86
2022/04/08 05:37:30;;;;;;;15.10;2.67;;;2.60;99.90;;;;;;4882850;29;20080;-86
2022/04/08 05:39:56;;;;;;;12.30;2.97;;;2.70;99.90;;;;;;4900178;29;20083;-86
2022/04/08 05:42:22;;;;;;;14.97;3.17;;;2.90;99.90;;;;;;4900274;29;20049;-86
2022/04/08 05:44:48;;;;;;;12.03;3.40;;;2.80;99.90;;;;;;4882467;29;20401;-86
2022/04/08 05:47:13;;;;;;;15.90;2.97;;;3.10;99.90;;;;;;4882752;29;20044;-86
2022/04/08 05:49:39;;;;;;;10.40;3.13;;;3.00;99.90;;;;;;4883269;29;20111;-86
2022/04/08 05:52:08;;;;;;;12.63;2.70;;;3.20;99.90;;;;;;4882528;29;20108;-86
2022/04/08 05:54:33;;;;;;;12.07;2.63;;;3.20;99.90;;;;;;4900215;29;20052;-86
2022/04/08 05:57:00;;;;;;;12.10;2.80;;;3.20;99.90;;;;;;4882973;29;20049;-86
2022/04/08 05:59:28;;;;;;;16.53;3.40;;;3.30;99.90;;;;;;4882252;29;20386;-85
2022/04/08 06:01:54;;;;;;;9.93;3.23;;;3.40;99.90;;;;;;4899716;29;20429;-86
2022/04/08 06:04:20;;;;;;;10.10;3.13;;;3.40;99.90;;;;;;4883458;29;20115;-86
2022/04/08 06:06:46;;;;;;;10.77;2.73;;;2.90;99.90;;;;;;4882540;29;20044;-85
2022/04/08 06:09:12;;;;;;;13.10;2.60;;;3.40;99.90;;;;;;4900192;29;20053;-86
2022/04/08 06:11:37;;;;;;;11.30;2.50;;;3.30;99.90;;;;;;4899780;29;20430;-85
2022/04/08 06:14:03;;;;;;;12.00;2.83;;;3.40;99.90;;;;;;4881776;29;20404;-86
2022/04/08 06:16:29;;;;;;;7.17;2.37;;;5.00;99.90;;;;;;4899984;29;20124;-86
2022/04/08 06:18:58;;;;;;;8.83;2.10;;;3.30;99.90;;;;;;4898664;29;20062;-85
2022/04/08 06:21:24;;;;;;;10.03;2.80;;;3.30;99.90;;;;;;4882595;29;20139;-85
2022/04/08 06:23:51;;;;;;;8.23;2.00;;;3.40;99.90;;;;;;4899893;29;20135;-86
2022/04/08 06:26:17;;;;;;;8.13;2.73;;;3.40;99.90;;;;;;4882292;29;20052;-95
2022/04/08 06:28:43;;;;;;;8.60;2.63;;;3.40;99.90;;;;;;4883492;29;20068;-92
2022/04/08 06:31:10;;;;;;;8.50;2.63;;;3.40;99.90;;;;;;4883519;29;20052;-93
2022/04/08 06:33:36;;;;;;;7.13;2.13;;;3.30;99.90;;;;;;4900527;23;20504;-90
2022/04/08 06:36:01;;;;;;;6.77;2.20;;;3.80;99.90;;;;;;4897943;29;20059;-89
2022/04/08 06:38:27;;;;;;;8.43;2.30;;;4.60;99.90;;;;;;4898439;29;20044;-89
2022/04/08 06:40:52;;;;;;;7.23;1.83;;;3.10;99.90;;;;;;4898542;29;20090;-89
2022/04/08 06:43:21;;;;;;;8.27;2.13;;;3.40;99.90;;;;;;4899369;29;20445;-88
2022/04/08 06:45:47;;;;;;;5.50;1.87;;;4.00;99.90;;;;;;4899117;29;20394;-88
2022/04/08 06:48:13;;;;;;;7.13;2.00;;;2.40;99.90;;;;;;4897340;29;20093;-89
2022/04/08 06:50:39;;;;;;;6.47;2.00;;;3.00;99.90;;;;;;4899997;29;20048;-94
2022/04/08 06:53:05;;;;;;;7.67;1.83;;;3.20;99.90;;;;;;4898320;29;20405;-92
2022/04/08 06:55:32;;;;;;;5.87;1.90;;;2.70;99.90;;;;;;4897908;29;20044;-86
2022/04/08 06:57:59;;;;;;;7.43;2.00;;;2.80;99.90;;;;;;4897141;29;20060;-91
2022/04/08 07:00:25;;;;;;;5.43;1.87;;;2.80;99.90;;;;;;4897311;29;20123;-89
2022/04/08 07:02:50;;;;;;;6.77;2.03;;;2.60;99.90;;;;;;4898203;29;20132;-89
2022/04/08 07:05:16;;;;;;;6.03;1.97;;;3.00;99.90;;;;;;4900008;29;20386;-89
2022/04/08 07:07:45;;;;;;;7.30;2.30;;;2.80;99.90;;;;;;4897753;29;20382;-89
2022/04/08 07:10:11;;;;;;;6.57;1.80;;;2.90;99.90;;;;;;4896800;29;20049;-91
2022/04/08 07:12:37;;;;;;;4.50;1.70;;;3.10;99.90;;;;;;4898818;29;20048;-92
2022/04/08 07:15:03;;;;;;;6.50;2.00;;;3.20;99.90;;;;;;4899121;29;20049;-88
2022/04/08 07:17:36;;;;;;;6.03;1.90;;;3.30;99.90;;;;;;4901108;29;20056;-94
2022/04/08 07:20:04;;;;;;;7.90;2.07;;;4.80;99.90;;;;;;4897954;29;20105;-92
2022/04/08 07:22:30;;;;;;;7.80;2.03;;;3.50;99.90;;;;;;4924763;23;20056;-89
2022/04/08 07:24:56;;;;;;;8.00;1.97;;;2.90;99.90;;;;;;4909893;29;20043;-90
2022/04/08 07:30:32;;;;;;;6.77;2.00;;;3.40;99.90;;;;;;4939441;29;20047;-91
2022/04/08 07:33:00;;;;;;;6.03;1.90;;;3.30;99.90;;;;;;4923524;29;20065;-91
2022/04/08 07:35:26;;;;;;;5.47;1.80;;;3.20;99.90;;;;;;4919525;29;20399;-93
2022/04/08 07:37:53;;;;;;;8.43;2.20;;;3.20;99.90;;;;;;4918763;29;20047;-92
2022/04/08 07:40:19;;;;;;;6.63;2.03;;;3.10;99.90;;;;;;4937229;29;20051;-91
2022/04/08 07:42:45;;;;;;;6.20;2.10;;;4.70;99.90;;;;;;4937072;29;20067;-90
2022/04/08 07:45:17;;;;;;;5.47;2.03;;;4.10;99.90;;;;;;4918364;29;20050;-92
2022/04/08 07:47:43;;;;;;;7.37;2.07;;;4.30;99.90;;;;;;4919353;29;20043;-90
2022/04/08 07:50:12;;;;;;;6.57;1.90;;;4.60;99.90;;;;;;4917325;29;20052;-89
2022/04/08 07:52:40;;;;;;;6.90;2.00;;;3.60;99.90;;;;;;4900083;29;20052;-91
2022/04/08 07:55:07;;;;;;;7.43;2.20;;;6.40;99.90;;;;;;4901643;29;20058;-94
2022/04/08 07:57:50;;;;;;;7.13;2.30;;;4.40;99.90;;;;;;4901259;29;20048;-93
2022/04/08 08:00:27;;;;;;;11.77;7.03;;;4.50;99.90;;;;;;4916981;29;20064;-88
2022/04/08 08:02:53;;;;;;;10.37;6.53;;;5.80;99.90;;;;;;4921634;29;20051;-89
2022/04/08 08:05:31;;;;;;;11.70;3.80;;;4.70;99.90;;;;;;4923960;29;20040;-90
2022/04/08 08:07:59;;;;;;;9.77;4.57;;;4.60;99.90;;;;;;4899606;29;20063;-89
2022/04/08 08:10:33;;;;;;;12.03;6.57;;;5.40;99.90;;;;;;4917220;29;20047;-90
2022/04/08 08:13:02;;;;;;;18.88;9.38;;;4.80;99.90;;;;;;4916674;29;20385;-90
2022/04/08 08:15:30;;;;;;;11.73;3.33;;;5.40;99.90;;;;;;4900155;29;20388;-90
2022/04/08 08:18:00;;;;;;;12.13;4.70;;;5.50;99.90;;;;;;4901285;29;20048;-91
2022/04/08 08:20:37;;;;;;;10.50;4.53;;;5.40;99.90;;;;;;4902334;29;20123;-89
2022/04/08 08:23:06;;;;;;;16.87;8.57;;;5.60;99.90;;;;;;4898789;29;20059;-90
2022/04/08 08:25:38;;;;;;;16.53;8.43;;;6.40;99.90;;;;;;4915821;29;20056;-89
2022/04/08 08:28:04;;;;;;;16.37;9.70;;;5.10;99.90;;;;;;4922813;29;20119;-90
2022/04/08 08:30:30;;;;;;;9.57;3.30;;;5.10;99.90;;;;;;4916747;29;20605;-90
2022/04/08 08:32:56;;;;;;;23.90;13.47;;;4.80;99.90;;;;;;4899527;29;20083;-88
2022/04/08 08:35:25;;;;;;;9.00;3.30;;;4.80;99.90;;;;;;4899509;29;20044;-88
2022/04/08 08:37:51;;;;;;;27.37;20.47;;;4.50;99.90;;;;;;4916219;29;20047;-88
2022/04/08 08:40:32;;;;;;;12.53;6.07;;;6.40;99.90;;;;;;4898764;29;20140;-88
2022/04/08 08:43:17;;;;;;;11.20;4.57;;;5.10;99.90;;;;;;4899096;29;20088;-88
2022/04/08 08:45:57;;;;;;;9.53;3.27;;;4.80;99.90;;;;;;4899178;29;20072;-90
2022/04/08 08:48:32;;;;;;;12.40;5.40;;;4.10;99.90;;;;;;4899179;29;20135;-91
2022/04/08 08:51:07;;;;;;;14.03;4.33;;;5.70;99.90;;;;;;4899013;29;20489;-89
2022/04/08 08:53:44;;;;;;;8.77;2.97;;;4.90;99.90;;;;;;4916164;29;20054;-91
2022/04/08 08:56:27;;;;;;;11.27;3.40;;;4.90;99.90;;;;;;4899221;29;20040;-91
2022/04/08 08:58:56;;;;;;;11.00;2.65;;;6.10;99.90;;;;;;4898675;29;20143;-90
2022/04/08 09:01:29;;;;;;;10.70;3.10;;;6.00;99.90;;;;;;4915670;29;20091;-90
2022/04/08 09:03:55;;;;;;;10.75;3.80;;;5.30;99.90;;;;;;4899166;29;20048;-91
2022/04/08 09:06:21;;;;;;;12.73;4.50;;;5.50;99.90;;;;;;4903356;29;20040;-91
2022/04/08 09:11:43;;;;;;;8.70;2.80;;;6.20;99.90;;;;;;4891167;29;20048;-91
2022/04/08 09:14:09;;;;;;;11.27;3.30;;;4.90;99.90;;;;;;4918553;29;20050;-91
2022/04/08 09:17:11;;;;;;;10.37;3.10;;;6.30;99.90;;;;;;4934723;29;20392;-90
2022/04/08 09:19:48;;;;;;;10.70;3.00;;;4.90;99.90;;;;;;4932617;29;20070;-89
2022/04/08 09:22:14;;;;;;;8.97;3.13;;;5.70;99.90;;;;;;4907019;23;20048;-89
2022/04/08 09:24:40;;;;;;;7.77;2.53;;;5.60;99.90;;;;;;4917959;29;20523;-90
2022/04/08 09:27:10;;;;;;;7.97;2.60;;;5.90;99.90;;;;;;4917081;29;20044;-91
2022/04/08 09:29:36;;;;;;;8.03;2.33;;;6.00;99.90;;;;;;4918145;29;20060;-91
2022/04/08 09:32:10;;;;;;;9.53;2.70;;;7.50;99.90;;;;;;4900611;29;20080;-91
2022/04/08 09:34:50;;;;;;;9.63;2.73;;;7.20;99.90;;;;;;4901710;29;20056;-92
2022/04/08 09:37:22;;;;;;;6.87;2.43;;;6.10;99.90;;;;;;4918321;29;20048;-89
2022/04/08 09:40:03;;;;;;;9.97;2.47;;;6.40;99.90;;;;;;4900883;29;20065;-87
2022/04/08 09:42:46;;;;;;;8.17;2.40;;;6.80;99.90;;;;;;4883838;29;20057;-90
2022/04/08 09:45:31;;;;;;;7.43;2.10;;;6.90;99.90;;;;;;4893444;29;20044;-89
2022/04/08 09:48:00;;;;;;;8.63;2.20;;;7.70;99.90;;;;;;4901985;29;20056;-90
2022/04/08 09:50:26;;;;;;;7.77;2.13;;;7.40;99.90;;;;;;4901341;29;20495;-89
2022/04/08 09:52:52;;;;;;;9.83;2.37;;;6.60;99.90;;;;;;4918561;29;20123;-90
2022/04/08 09:55:19;;;;;;;11.93;2.50;;;7.90;99.90;;;;;;4901934;29;20048;-91
2022/04/08 09:57:56;;;;;;;9.33;2.77;;;7.00;99.90;;;;;;4901352;29;20395;-90
2022/04/08 10:00:23;;;;;;;9.87;2.60;;;7.00;99.90;;;;;;4918710;29;20052;-90
2022/04/08 10:02:53;;;;;;;8.77;2.30;;;7.10;99.90;;;;;;4901395;29;20052;-88
2022/04/08 10:05:39;;;;;;;10.30;2.50;;;7.30;99.90;;;;;;4917839;29;20046;-89
2022/04/08 10:08:20;;;;;;;10.00;2.77;;;8.20;99.90;;;;;;4917247;29;20456;-90
2022/04/08 10:10:53;;;;;;;11.43;3.10;;;7.80;99.90;;;;;;4916310;29;20040;-90
2022/04/08 10:13:27;;;;;;;12.33;2.70;;;10.00;99.90;;;;;;4900012;29;20130;-89
2022/04/08 10:16:10;;;;;;;13.00;3.00;;;7.30;99.90;;;;;;4900487;29;20084;-88
2022/04/08 10:18:46;;;;;;;10.45;3.38;;;8.00;99.90;;;;;;4914513;29;20079;-92
2022/04/08 10:21:18;;;;;;;12.10;3.20;;;7.60;99.90;;;;;;4899607;29;20068;-90
2022/04/08 10:23:55;;;;;;;11.67;2.93;;;8.50;99.90;;;;;;4901086;29;20056;-89
2022/04/08 10:26:26;;;;;;;11.30;3.20;;;7.70;99.90;;;;;;4901633;29;20040;-89
2022/04/08 10:29:05;;;;;;;11.57;2.77;;;7.70;99.90;;;;;;4902170;29;20047;-89
2022/04/08 10:31:58;;;;;;;10.20;2.93;;;7.60;99.90;;;;;;4899906;29;20066;-90
2022/04/08 10:34:35;;;;;;;;;;;;;;;;;;;;;
2022/04/08 10:37:24;;;;;;;13.57;3.30;;;9.50;99.90;;;;;;4900231;29;20048;-91
2022/04/08 10:40:04;;;;;;;12.83;3.20;;;8.40;99.90;;;;;;4897711;29;20050;-89
2022/04/08 10:42:33;;;;;;;12.13;2.70;;;8.20;99.90;;;;;;4898049;29;20044;-91
2022/04/08 10:45:14;;;;;;;12.20;3.20;;;8.00;99.90;;;;;;4915532;29;20072;-89
2022/04/08 10:47:47;;;;;;;11.23;3.03;;;9.30;99.90;;;;;;4884304;29;20053;-93
2022/04/08 10:50:45;;;;;;;8.77;2.63;;;8.30;99.90;;;;;;4882506;29;20457;-95
2022/04/08 10:53:32;;;;;;;10.50;2.77;;;8.30;99.90;;;;;;4882324;29;20135;-93
2022/04/08 10:56:14;;;;;;;;;;;9.30;99.90;;;;;;4882842;29;20060;-92
2022/04/08 10:58:59;;;;;;;12.63;2.80;;;8.80;99.90;;;;;;4882420;29;20010;-93
2022/04/08 11:01:45;;;;;;;10.07;2.90;;;8.80;99.90;;;;;;4882202;29;20488;-92
2022/04/08 11:04:34;;;;;;;9.33;2.40;;;9.10;99.90;;;;;;4899356;29;20049;-94
2022/04/08 11:07:06;;;;;;;11.73;2.53;;;8.40;99.90;;;;;;4903663;29;20076;-90
2022/04/08 11:09:35;;;;;;;11.47;2.47;;;8.20;99.90;;;;;;4899900;29;20049;-95
2022/04/08 11:12:23;;;;;;;8.90;2.47;;;9.90;99.90;;;;;;4901629;29;20053;-94
2022/04/08 11:15:02;;;;;;;9.97;2.43;;;8.30;99.90;;;;;;4918610;29;20052;-96
2022/04/08 11:17:43;;;;;;;10.90;2.30;;;8.10;99.90;;;;;;4899452;29;20559;-96
2022/04/08 11:20:18;;;;;;;8.87;2.80;;;7.90;99.90;;;;;;4901434;29;20043;-96
2022/04/08 11:22:52;;;;;;;8.60;2.40;;;7.70;99.90;;;;;;4894148;29;20064;-91
2022/04/08 11:25:29;;;;;;;10.07;3.27;;;7.80;99.90;;;;;;4897817;29;20048;-90
2022/04/08 11:28:02;;;;;;;10.23;2.87;;;7.80;99.90;;;;;;4896833;29;20128;-92
2022/04/08 11:30:29;;;;;;;10.55;2.58;;;8.00;99.90;;;;;;4896645;29;20041;-88
2022/04/08 11:33:13;;;;;;;8.67;2.60;;;6.80;99.90;;;;;;4897564;29;20054;-86
2022/04/08 11:36:21;;;;;;;9.67;2.50;;;6.50;99.90;;;;;;4896751;29;20120;-87
2022/04/08 11:38:47;;;;;;;9.07;2.37;;;5.70;99.90;;;;;;4996935;23;20562;-86
2022/04/08 11:41:35;;;;;;;11.30;2.97;;;6.30;99.90;;;;;;4937899;29;20061;-87
2022/04/08 11:44:08;;;;;;;10.57;3.20;;;6.00;99.90;;;;;;4936467;28;20052;-87
2022/04/08 11:46:39;;;;;;;10.47;2.70;;;6.20;99.90;;;;;;4937305;29;20058;-86
2022/04/08 11:49:24;;;;;;;10.03;2.60;;;7.10;99.90;;;;;;4937598;29;20043;-86
2022/04/08 11:52:07;;;;;;;11.53;2.83;;;6.10;99.90;;;;;;4949757;29;20126;-88
2022/04/08 11:54:40;;;;;;;9.20;2.70;;;6.30;99.90;;;;;;4924473;29;20125;-86
2022/04/08 11:57:07;;;;;;;12.52;3.42;;;6.50;99.90;;;;;;4953996;29;20039;-84
2022/04/08 12:00:22;;;;;;;10.30;3.10;;;6.50;99.90;;;;;;4903676;29;20066;-88
2022/04/08 12:03:03;;;;;;;12.80;3.03;;;6.90;99.90;;;;;;4912933;29;20065;-86
2022/04/08 12:05:49;;;;;;;11.43;2.80;;;6.50;99.90;;;;;;4926452;29;20039;-86
2022/04/08 12:08:15;;;;;;;13.57;3.73;;;7.60;99.90;;;;;;4918257;29;20099;-90
2022/04/08 12:10:41;;;;;;;9.90;3.00;;;7.20;99.90;;;;;;4934745;29;20048;-89
2022/04/08 12:13:31;;;;;;;9.43;2.90;;;7.80;99.90;;;;;;4920450;29;20400;-91
2022/04/08 12:16:08;;;;;;;13.67;3.40;;;8.40;99.90;;;;;;4936832;29;20062;-87
2022/04/08 12:18:34;;;;;;;13.93;5.13;;;8.80;99.90;;;;;;4923516;28;20101;-89
2022/04/08 12:21:23;;;;;;;11.00;3.87;;;8.10;99.90;;;;;;4922207;29;20048;-88
2022/04/08 12:23:52;;;;;;;11.03;2.80;;;8.50;99.90;;;;;;4933393;29;20039;-87
2022/04/08 12:26:29;;;;;;;11.13;3.73;;;8.80;99.90;;;;;;4926489;29;20111;-86
2022/04/08 12:29:09;;;;;;;11.00;3.97;;;9.20;99.90;;;;;;4954266;29;20467;-87
2022/04/08 12:31:45;;;;;;;17.53;7.10;;;9.40;99.90;;;;;;4954819;29;20174;-87
2022/04/08 12:34:11;;;;;;;11.83;3.50;;;9.50;99.90;;;;;;4954633;29;20134;-87
2022/04/08 12:36:36;;;;;;;11.20;3.60;;;9.50;99.90;;;;;;4939150;29;20443;-89
2022/04/08 12:39:02;;;;;;;13.60;4.70;;;9.70;99.90;;;;;;4935803;29;20420;-90
2022/04/08 12:41:39;;;;;;;9.17;3.03;;;9.90;99.90;;;;;;4937058;29;20145;-89
2022/04/08 12:44:05;;;;;;;7.77;2.40;;;9.50;99.90;;;;;;4936619;29;20057;-87
2022/04/08 12:46:31;;;;;;;6.82;2.20;;;9.10;99.90;;;;;;4936696;29;20047;-87
2022/04/08 12:48:56;;;;;;;7.63;2.07;;;9.90;99.90;;;;;;4936879;29;20085;-87
2022/04/08 12:51:22;;;;;;;8.67;2.33;;;9.40;99.90;;;;;;4937359;29;20110;-87
2022/04/08 12:53:48;;;;;;;7.53;2.00;;;9.10;99.90;;;;;;4953445;29;20502;-86
2022/04/08 12:56:13;;;;;;;7.10;2.10;;;8.30;99.90;;;;;;4937111;29;20055;-87
2022/04/08 12:58:39;;;;;;;10.35;3.08;;;9.40;99.90;;;;;;4939785;23;20052;-87
2022/04/08 13:01:10;;;;;;;11.40;3.00;;;8.10;99.90;;;;;;4901907;29;20135;-88
2022/04/08 13:03:37;;;;;;;7.32;2.28;;;7.70;99.90;;;;;;4920086;29;20048;-87
2022/04/08 13:06:10;;;;;;;12.60;2.40;;;8.60;99.90;;;;;;4902057;29;20048;-88
2022/04/08 13:08:36;;;;;;;12.27;5.50;;;8.40;99.90;;;;;;4901932;29;20051;-88
2022/04/08 13:13:48;;;;;;;12.50;3.97;;;9.70;99.90;;;;;;4969598;23;20055;-87